sensor_id;sensor_type;location;lat;lon;timestamp;pressure;altitude;pressure_sealevel;temperature;humidity
73031;BME280;61206;50.816;6.012;2022-07-06T00:00:36;100668.81;;;16.65;53.40
73031;BME280;61206;50.816;6.012;2022-07-06T00:03:04;100672.03;;;16.67;53.57
73031;BME280;61206;50.816;6.012;2022-07-06T00:05:30;100676.81;;;16.70;53.46
73031;BME280;61206;50.816;6.012;2022-07-06T00:07:55;100681.47;;;16.59;53.52
73031;BME280;61206;50.816;6.012;2022-07-06T00:10:21;100667.81;;;16.61;52.91
73031;BME280;61206;50.816;6.012;2022-07-06T00:12:49;100673.91;;;16.66;53.11
73031;BME280;61206;50.816;6.012;2022-07-06T00:15:20;100663.81;;;16.58;53.31
73031;BME280;61206;50.816;6.012;2022-07-06T00:17:46;100652.88;;;16.55;53.12
73031;BME280;61206;50.816;6.012;2022-07-06T00:20:11;100674.31;;;16.55;53.48
73031;BME280;61206;50.816;6.012;2022-07-06T00:22:37;100655.56;;;16.50;53.70
73031;BME280;61206;50.816;6.012;2022-07-06T00:25:09;100657.75;;;16.48;53.88
73031;BME280;61206;50.816;6.012;2022-07-06T00:27:38;100666.81;;;16.52;53.70
73031;BME280;61206;50.816;6.012;2022-07-06T00:30:07;100661.22;;;16.48;54.14
73031;BME280;61206;50.816;6.012;2022-07-06T00:32:36;100646.91;;;16.34;53.99
73031;BME280;61206;50.816;6.012;2022-07-06T00:35:05;100651.31;;;16.25;54.15
73031;BME280;61206;50.816;6.012;2022-07-06T00:37:30;100660.25;;;16.15;54.16
73031;BME280;61206;50.816;6.012;2022-07-06T00:39:56;100654.44;;;16.08;54.41
73031;BME280;61206;50.816;6.012;2022-07-06T00:42:21;100655.66;;;15.92;55.12
73031;BME280;61206;50.816;6.012;2022-07-06T00:44:47;100654.63;;;15.88;55.11
73031;BME280;61206;50.816;6.012;2022-07-06T00:47:14;100661.28;;;15.91;55.17
73031;BME280;61206;50.816;6.012;2022-07-06T00:49:40;100663.28;;;15.80;55.20
73031;BME280;61206;50.816;6.012;2022-07-06T00:52:24;100650.78;;;15.71;55.72
73031;BME280;61206;50.816;6.012;2022-07-06T00:54:50;100655.84;;;15.72;55.51
73031;BME280;61206;50.816;6.012;2022-07-06T00:57:17;100650.84;;;15.60;55.64
73031;BME280;61206;50.816;6.012;2022-07-06T00:59:43;100658.84;;;15.65;55.80
73031;BME280;61206;50.816;6.012;2022-07-06T01:02:09;100653.09;;;15.48;55.99
73031;BME280;61206;50.816;6.012;2022-07-06T01:04:34;100668.31;;;15.53;56.29
73031;BME280;61206;50.816;6.012;2022-07-06T01:07:00;100673.97;;;15.41;56.38
73031;BME280;61206;50.816;6.012;2022-07-06T01:09:26;100670.22;;;15.42;56.87
73031;BME280;61206;50.816;6.012;2022-07-06T01:11:52;100664.16;;;15.32;56.83
73031;BME280;61206;50.816;6.012;2022-07-06T01:14:19;100661.56;;;15.22;57.11
73031;BME280;61206;50.816;6.012;2022-07-06T01:16:45;100663.13;;;15.23;57.27
73031;BME280;61206;50.816;6.012;2022-07-06T01:19:13;100666.38;;;15.20;57.55
73031;BME280;61206;50.816;6.012;2022-07-06T01:21:41;100667.72;;;15.17;57.79
73031;BME280;61206;50.816;6.012;2022-07-06T01:24:07;100669.88;;;15.15;57.56
73031;BME280;61206;50.816;6.012;2022-07-06T01:26:36;100664.03;;;15.13;57.42
73031;BME280;61206;50.816;6.012;2022-07-06T01:29:02;100663.78;;;15.09;57.71
73031;BME280;61206;50.816;6.012;2022-07-06T01:31:31;100658.75;;;14.98;57.57
73031;BME280;61206;50.816;6.012;2022-07-06T01:33:57;100658.78;;;14.93;58.22
73031;BME280;61206;50.816;6.012;2022-07-06T01:36:23;100666.00;;;14.92;58.03
73031;BME280;61206;50.816;6.012;2022-07-06T01:38:53;100662.81;;;14.90;58.15
73031;BME280;61206;50.816;6.012;2022-07-06T01:41:20;100660.97;;;14.81;58.41
73031;BME280;61206;50.816;6.012;2022-07-06T01:43:45;100664.47;;;14.76;58.24
73031;BME280;61206;50.816;6.012;2022-07-06T01:46:16;100658.06;;;14.77;58.15
73031;BME280;61206;50.816;6.012;2022-07-06T01:48:41;100662.34;;;14.73;58.19
73031;BME280;61206;50.816;6.012;2022-07-06T01:51:08;100669.59;;;14.73;58.42
73031;BME280;61206;50.816;6.012;2022-07-06T01:53:35;100671.44;;;14.67;58.36
73031;BME280;61206;50.816;6.012;2022-07-06T01:56:01;100665.06;;;14.58;58.63
73031;BME280;61206;50.816;6.012;2022-07-06T01:58:29;100661.63;;;14.52;59.19
73031;BME280;61206;50.816;6.012;2022-07-06T02:00:55;100633.13;;;14.38;59.06
73031;BME280;61206;50.816;6.012;2022-07-06T02:03:21;100661.38;;;14.49;59.59
73031;BME280;61206;50.816;6.012;2022-07-06T02:05:50;100665.91;;;14.48;59.23
73031;BME280;61206;50.816;6.012;2022-07-06T02:08:17;100663.50;;;14.52;58.77
73031;BME280;61206;50.816;6.012;2022-07-06T02:10:43;100665.91;;;14.48;59.00
73031;BME280;61206;50.816;6.012;2022-07-06T02:13:08;100668.59;;;14.48;59.25
73031;BME280;61206;50.816;6.012;2022-07-06T02:15:34;100655.00;;;14.30;59.42
73031;BME280;61206;50.816;6.012;2022-07-06T02:17:59;100661.16;;;14.35;59.44
73031;BME280;61206;50.816;6.012;2022-07-06T02:20:28;100672.38;;;14.37;59.57
73031;BME280;61206;50.816;6.012;2022-07-06T02:22:53;100664.88;;;14.39;59.49
73031;BME280;61206;50.816;6.012;2022-07-06T02:25:19;100664.66;;;14.36;59.59
73031;BME280;61206;50.816;6.012;2022-07-06T02:27:47;100664.09;;;14.29;59.45
73031;BME280;61206;50.816;6.012;2022-07-06T02:30:13;100664.66;;;14.36;59.28
73031;BME280;61206;50.816;6.012;2022-07-06T02:32:38;100664.88;;;14.39;59.62
73031;BME280;61206;50.816;6.012;2022-07-06T02:35:04;100666.78;;;14.39;59.41
73031;BME280;61206;50.816;6.012;2022-07-06T02:37:30;100646.97;;;14.30;59.27
73031;BME280;61206;50.816;6.012;2022-07-06T02:39:55;100649.69;;;14.35;59.64
73031;BME280;61206;50.816;6.012;2022-07-06T02:42:21;100650.75;;;14.29;59.83
73031;BME280;61206;50.816;6.012;2022-07-06T02:44:46;100650.75;;;14.24;59.85
73031;BME280;61206;50.816;6.012;2022-07-06T02:47:17;100659.28;;;14.21;60.00
73031;BME280;61206;50.816;6.012;2022-07-06T02:49:46;100644.91;;;14.17;59.69
73031;BME280;61206;50.816;6.012;2022-07-06T02:52:11;100648.09;;;14.19;59.62
73031;BME280;61206;50.816;6.012;2022-07-06T02:54:37;100668.13;;;14.16;60.34
73031;BME280;61206;50.816;6.012;2022-07-06T02:57:05;100665.16;;;14.18;60.18
73031;BME280;61206;50.816;6.012;2022-07-06T02:59:31;100667.06;;;14.07;60.34
73031;BME280;61206;50.816;6.012;2022-07-06T03:01:56;100666.00;;;14.03;60.36
73031;BME280;61206;50.816;6.012;2022-07-06T03:04:22;100665.75;;;14.04;60.43
73031;BME280;61206;50.816;6.012;2022-07-06T03:06:48;100658.53;;;14.00;60.40
73031;BME280;61206;50.816;6.012;2022-07-06T03:09:13;100665.75;;;14.04;60.49
73031;BME280;61206;50.816;6.012;2022-07-06T03:11:42;100663.63;;;14.01;60.40
73031;BME280;61206;50.816;6.012;2022-07-06T03:14:07;100667.59;;;13.99;60.52
73031;BME280;61206;50.816;6.012;2022-07-06T03:16:36;100668.16;;;13.96;60.83
73031;BME280;61206;50.816;6.012;2022-07-06T03:19:01;100668.97;;;13.91;60.70
73031;BME280;61206;50.816;6.012;2022-07-06T03:21:36;100688.19;;;13.98;60.71
73031;BME280;61206;50.816;6.012;2022-07-06T03:24:01;100674.03;;;13.93;60.72
73031;BME280;61206;50.816;6.012;2022-07-06T03:26:30;100685.75;;;13.97;61.08
73031;BME280;61206;50.816;6.012;2022-07-06T03:28:55;100684.41;;;13.99;61.03
73031;BME280;61206;50.816;6.012;2022-07-06T03:31:21;100687.63;;;13.96;60.90
73031;BME280;61206;50.816;6.012;2022-07-06T03:33:46;100687.38;;;13.98;60.87
73031;BME280;61206;50.816;6.012;2022-07-06T03:36:15;100680.44;;;13.97;61.03
73031;BME280;61206;50.816;6.012;2022-07-06T03:38:40;100682.03;;;13.93;61.13
73031;BME280;61206;50.816;6.012;2022-07-06T03:41:06;100677.50;;;13.93;61.09
73031;BME280;61206;50.816;6.012;2022-07-06T03:43:34;100677.50;;;13.93;60.85
73031;BME280;61206;50.816;6.012;2022-07-06T03:46:01;100679.91;;;13.95;61.11
73031;BME280;61206;50.816;6.012;2022-07-06T03:48:26;100684.44;;;13.94;60.94
73031;BME280;61206;50.816;6.012;2022-07-06T03:50:52;100692.44;;;13.94;61.18
73031;BME280;61206;50.816;6.012;2022-07-06T03:53:18;100683.63;;;13.94;61.03
73031;BME280;61206;50.816;6.012;2022-07-06T03:55:44;100690.31;;;13.86;61.27
73031;BME280;61206;50.816;6.012;2022-07-06T03:58:30;100696.72;;;13.85;61.28
73031;BME280;61206;50.816;6.012;2022-07-06T04:00:59;100688.19;;;13.78;61.37
73031;BME280;61206;50.816;6.012;2022-07-06T04:03:28;100694.31;;;13.79;61.33
73031;BME280;61206;50.816;6.012;2022-07-06T04:06:00;100696.19;;;13.78;61.33
73031;BME280;61206;50.816;6.012;2022-07-06T04:08:28;100699.66;;;13.74;61.59
73031;BME280;61206;50.816;6.012;2022-07-06T04:10:53;100698.31;;;13.71;61.87
73031;BME280;61206;50.816;6.012;2022-07-06T04:13:19;100701.25;;;13.75;61.85
73031;BME280;61206;50.816;6.012;2022-07-06T04:15:48;100690.56;;;13.75;61.85
73031;BME280;61206;50.816;6.012;2022-07-06T04:18:13;100692.47;;;13.79;62.10
73031;BME280;61206;50.816;6.012;2022-07-06T04:20:39;100694.03;;;13.75;62.57
73031;BME280;61206;50.816;6.012;2022-07-06T04:23:08;100705.25;;;13.87;62.33
73031;BME280;61206;50.816;6.012;2022-07-06T04:25:37;100705.50;;;13.91;62.64
73031;BME280;61206;50.816;6.012;2022-07-06T04:28:06;100700.72;;;13.98;62.21
73031;BME280;61206;50.816;6.012;2022-07-06T04:30:32;100700.97;;;14.01;62.54
73031;BME280;61206;50.816;6.012;2022-07-06T04:32:58;100706.88;;;13.98;62.52
73031;BME280;61206;50.816;6.012;2022-07-06T04:35:27;100720.47;;;14.07;62.40
73031;BME280;61206;50.816;6.012;2022-07-06T04:37:55;100715.38;;;14.16;62.21
73031;BME280;61206;50.816;6.012;2022-07-06T04:40:21;100711.09;;;14.20;62.11
73031;BME280;61206;50.816;6.012;2022-07-06T04:42:46;100718.28;;;14.29;62.11
73031;BME280;61206;50.816;6.012;2022-07-06T04:45:12;100716.69;;;14.28;62.28
73031;BME280;61206;50.816;6.012;2022-07-06T04:47:38;100710.03;;;14.36;62.05
73031;BME280;61206;50.816;6.012;2022-07-06T04:50:07;100706.03;;;14.38;62.02
73031;BME280;61206;50.816;6.012;2022-07-06T04:52:35;100713.19;;;14.53;61.88
73031;BME280;61206;50.816;6.012;2022-07-06T04:55:01;100713.91;;;14.74;61.32
73031;BME280;61206;50.816;6.012;2022-07-06T04:57:27;100712.19;;;15.03;60.48
73031;BME280;61206;50.816;6.012;2022-07-06T04:59:55;100714.44;;;15.35;59.90
73031;BME280;61206;50.816;6.012;2022-07-06T05:02:23;100714.56;;;15.58;59.14
73031;BME280;61206;50.816;6.012;2022-07-06T05:04:49;100713.38;;;15.75;58.63
73031;BME280;61206;50.816;6.012;2022-07-06T05:07:17;100718.22;;;16.01;58.42
73031;BME280;61206;50.816;6.012;2022-07-06T05:09:43;100719.75;;;16.36;57.27
73031;BME280;61206;50.816;6.012;2022-07-06T05:12:09;100710.19;;;16.54;56.31
73031;BME280;61206;50.816;6.012;2022-07-06T05:14:37;100701.31;;;16.82;55.65
73031;BME280;61206;50.816;6.012;2022-07-06T05:17:04;100707.56;;;16.96;55.43
73031;BME280;61206;50.816;6.012;2022-07-06T05:19:32;100711.84;;;17.16;54.86
73031;BME280;61206;50.816;6.012;2022-07-06T05:21:58;100694.81;;;17.25;54.46
73031;BME280;61206;50.816;6.012;2022-07-06T05:24:23;100704.97;;;17.47;53.75
73031;BME280;61206;50.816;6.012;2022-07-06T05:26:56;100713.69;;;17.58;53.20
73031;BME280;61206;50.816;6.012;2022-07-06T05:29:21;100709.75;;;17.69;53.51
73031;BME280;61206;50.816;6.012;2022-07-06T05:31:47;100726.03;;;17.59;53.12
73031;BME280;61206;50.816;6.012;2022-07-06T05:34:13;100725.28;;;17.72;53.03
73031;BME280;61206;50.816;6.012;2022-07-06T05:36:41;100730.47;;;18.01;52.67
73031;BME280;61206;50.816;6.012;2022-07-06T05:39:06;100726.00;;;18.23;51.98
73031;BME280;61206;50.816;6.012;2022-07-06T05:41:32;100731.63;;;18.41;51.19
73031;BME280;61206;50.816;6.012;2022-07-06T05:43:57;100729.16;;;18.44;50.73
73031;BME280;61206;50.816;6.012;2022-07-06T05:46:23;100734.81;;;18.43;50.73
73031;BME280;61206;50.816;6.012;2022-07-06T05:48:52;100726.63;;;18.48;50.76
73031;BME280;61206;50.816;6.012;2022-07-06T05:51:36;100738.03;;;18.58;49.87
73031;BME280;61206;50.816;6.012;2022-07-06T05:54:02;100736.66;;;18.74;50.23
73031;BME280;61206;50.816;6.012;2022-07-06T05:56:27;100740.22;;;18.83;49.72
73031;BME280;61206;50.816;6.012;2022-07-06T05:58:53;100727.88;;;18.96;48.90
73031;BME280;61206;50.816;6.012;2022-07-06T06:01:18;100734.00;;;19.10;49.01
73031;BME280;61206;50.816;6.012;2022-07-06T06:03:44;100740.94;;;19.38;48.47
73031;BME280;61206;50.816;6.012;2022-07-06T06:06:09;100746.38;;;19.61;48.00
73031;BME280;61206;50.816;6.012;2022-07-06T06:08:39;100740.06;;;19.65;48.27
73031;BME280;61206;50.816;6.012;2022-07-06T06:11:07;100739.72;;;19.80;47.41
73031;BME280;61206;50.816;6.012;2022-07-06T06:13:34;100736.84;;;19.99;47.44
73031;BME280;61206;50.816;6.012;2022-07-06T06:16:00;100743.56;;;20.10;46.80
73031;BME280;61206;50.816;6.012;2022-07-06T06:18:25;100743.53;;;20.32;46.24
73031;BME280;61206;50.816;6.012;2022-07-06T06:20:51;100737.34;;;20.32;45.60
73031;BME280;61206;50.816;6.012;2022-07-06T06:23:16;100725.31;;;20.29;46.32
73031;BME280;61206;50.816;6.012;2022-07-06T06:25:42;100737.41;;;20.49;45.19
73031;BME280;61206;50.816;6.012;2022-07-06T06:28:09;100737.53;;;20.75;44.23
73031;BME280;61206;50.816;6.012;2022-07-06T06:30:36;100737.72;;;20.95;43.63
73031;BME280;61206;50.816;6.012;2022-07-06T06:35:42;100743.84;;;21.35;42.08
73031;BME280;61206;50.816;6.012;2022-07-06T06:38:08;100736.41;;;21.41;42.36
73031;BME280;61206;50.816;6.012;2022-07-06T06:40:34;100755.16;;;21.54;43.23
73031;BME280;61206;50.816;6.012;2022-07-06T06:42:59;100744.97;;;21.51;42.44
73031;BME280;61206;50.816;6.012;2022-07-06T06:45:24;100752.91;;;21.48;42.24
73031;BME280;61206;50.816;6.012;2022-07-06T06:47:50;100750.06;;;21.62;43.40
73031;BME280;61206;50.816;6.012;2022-07-06T06:50:17;100747.69;;;21.69;41.78
73031;BME280;61206;50.816;6.012;2022-07-06T06:52:42;100759.44;;;21.81;41.80
73031;BME280;61206;50.816;6.012;2022-07-06T06:55:08;100756.25;;;21.88;42.27
73031;BME280;61206;50.816;6.012;2022-07-06T06:57:35;100753.72;;;22.00;42.07
73031;BME280;61206;50.816;6.012;2022-07-06T07:00:01;100759.25;;;22.21;42.03
73031;BME280;61206;50.816;6.012;2022-07-06T07:02:26;100759.25;;;22.21;41.00
73031;BME280;61206;50.816;6.012;2022-07-06T07:04:52;100759.66;;;22.31;41.62
73031;BME280;61206;50.816;6.012;2022-07-06T07:07:17;100743.16;;;22.24;41.46
73031;BME280;61206;50.816;6.012;2022-07-06T07:09:43;100752.69;;;22.30;41.38
73031;BME280;61206;50.816;6.012;2022-07-06T07:12:08;100756.59;;;22.50;40.16
73031;BME280;61206;50.816;6.012;2022-07-06T07:14:35;100754.38;;;22.52;40.40
73031;BME280;61206;50.816;6.012;2022-07-06T07:17:07;100748.22;;;22.34;40.51
73031;BME280;61206;50.816;6.012;2022-07-06T07:19:42;100748.16;;;22.51;40.86
73031;BME280;61206;50.816;6.012;2022-07-06T07:22:08;100755.44;;;22.59;40.65
73031;BME280;61206;50.816;6.012;2022-07-06T07:24:34;100759.06;;;22.72;40.42
73031;BME280;61206;50.816;6.012;2022-07-06T07:27:00;100759.47;;;22.91;39.61
73031;BME280;61206;50.816;6.012;2022-07-06T07:29:26;100758.28;;;23.01;39.10
73031;BME280;61206;50.816;6.012;2022-07-06T07:31:51;100753.06;;;22.96;39.26
73031;BME280;61206;50.816;6.012;2022-07-06T07:34:17;100766.22;;;23.06;39.63
73031;BME280;61206;50.816;6.012;2022-07-06T07:36:43;100760.25;;;22.92;39.87
73031;BME280;61206;50.816;6.012;2022-07-06T07:39:08;100745.91;;;22.62;38.32
73031;BME280;61206;50.816;6.012;2022-07-06T07:41:38;100747.22;;;22.47;38.98
73031;BME280;61206;50.816;6.012;2022-07-06T07:44:07;100741.94;;;22.51;38.74
73031;BME280;61206;50.816;6.012;2022-07-06T07:46:32;100751.16;;;22.50;38.06
73031;BME280;61206;50.816;6.012;2022-07-06T07:51:47;100756.34;;;22.34;38.58
73031;BME280;61206;50.816;6.012;2022-07-06T07:54:13;100761.09;;;22.37;38.92
73031;BME280;61206;50.816;6.012;2022-07-06T07:56:38;100756.25;;;22.05;38.63
73031;BME280;61206;50.816;6.012;2022-07-06T07:59:27;100748.94;;;21.80;39.19
73031;BME280;61206;50.816;6.012;2022-07-06T08:01:55;100751.97;;;21.61;39.45
73031;BME280;61206;50.816;6.012;2022-07-06T08:04:21;100749.91;;;21.49;39.43
73031;BME280;61206;50.816;6.012;2022-07-06T08:06:47;100743.38;;;21.25;39.98
73031;BME280;61206;50.816;6.012;2022-07-06T08:09:13;100747.13;;;21.07;40.39
73031;BME280;61206;50.816;6.012;2022-07-06T08:32:12;100751.16;;;20.70;42.25
73031;BME280;61206;50.816;6.012;2022-07-06T08:34:38;100740.84;;;20.72;42.45
73031;BME280;61206;50.816;6.012;2022-07-06T08:37:06;100755.53;;;21.05;40.99
73031;BME280;61206;50.816;6.012;2022-07-06T08:39:32;100714.88;;;20.84;41.34
73031;BME280;61206;50.816;6.012;2022-07-06T08:41:58;100757.81;;;21.20;41.02
73031;BME280;61206;50.816;6.012;2022-07-06T08:44:29;100744.34;;;21.29;41.04
73031;BME280;61206;50.816;6.012;2022-07-06T08:47:04;100737.69;;;21.52;40.03
73031;BME280;61206;50.816;6.012;2022-07-06T08:49:37;100718.78;;;21.43;40.28
73031;BME280;61206;50.816;6.012;2022-07-06T08:52:04;100745.78;;;21.61;40.24
73031;BME280;61206;50.816;6.012;2022-07-06T08:57:05;100745.75;;;21.26;40.33
73031;BME280;61206;50.816;6.012;2022-07-06T08:59:32;100732.25;;;21.26;40.23
73031;BME280;61206;50.816;6.012;2022-07-06T09:01:57;100752.78;;;21.44;40.19
73031;BME280;61206;50.816;6.012;2022-07-06T09:04:25;100756.75;;;21.81;40.68
73031;BME280;61206;50.816;6.012;2022-07-06T09:06:55;100754.66;;;22.13;39.50
73031;BME280;61206;50.816;6.012;2022-07-06T09:09:29;100755.56;;;22.25;38.24
73031;BME280;61206;50.816;6.012;2022-07-06T09:12:01;100755.88;;;22.24;37.92
73031;BME280;61206;50.816;6.012;2022-07-06T09:14:27;100756.38;;;22.17;38.00
73031;BME280;61206;50.816;6.012;2022-07-06T09:17:07;100756.41;;;22.09;38.11
73031;BME280;61206;50.816;6.012;2022-07-06T09:19:34;100677.31;;;21.57;38.11
73031;BME280;61206;50.816;6.012;2022-07-06T09:22:01;100663.00;;;21.39;38.66
73031;BME280;61206;50.816;6.012;2022-07-06T09:24:27;100740.53;;;21.81;38.64
73031;BME280;61206;50.816;6.012;2022-07-06T09:26:57;100737.19;;;21.67;38.80
73031;BME280;61206;50.816;6.012;2022-07-06T09:29:32;100741.16;;;21.61;39.45
73031;BME280;61206;50.816;6.012;2022-07-06T09:32:03;100720.03;;;21.54;39.54
73031;BME280;61206;50.816;6.012;2022-07-06T09:35:06;100661.44;;;21.12;38.78
73031;BME280;61206;50.816;6.012;2022-07-06T09:48:06;100693.31;;;21.70;37.75
73031;BME280;61206;50.816;6.012;2022-07-06T09:53:07;100747.31;;;22.22;36.84
73031;BME280;61206;50.816;6.012;2022-07-06T09:58:30;100656.31;;;21.62;36.92
73031;BME280;61206;50.816;6.012;2022-07-06T10:00:58;100751.81;;;21.92;36.27
73031;BME280;61206;50.816;6.012;2022-07-06T10:03:24;100742.13;;;21.99;36.21
73031;BME280;61206;50.816;6.012;2022-07-06T10:05:49;100743.38;;;22.02;36.73
73031;BME280;61206;50.816;6.012;2022-07-06T10:08:17;100739.72;;;21.98;36.77
73031;BME280;61206;50.816;6.012;2022-07-06T10:10:44;100735.41;;;22.14;37.21
73031;BME280;61206;50.816;6.012;2022-07-06T10:13:11;100743.97;;;22.25;35.79
73031;BME280;61206;50.816;6.012;2022-07-06T10:15:40;100742.34;;;22.32;35.82
73031;BME280;61206;50.816;6.012;2022-07-06T10:18:09;100741.53;;;22.32;35.16
73031;BME280;61206;50.816;6.012;2022-07-06T10:20:38;100736.78;;;22.37;34.82
73031;BME280;61206;50.816;6.012;2022-07-06T10:23:06;100737.44;;;22.64;36.45
73031;BME280;61206;50.816;6.012;2022-07-06T10:25:38;100741.91;;;22.97;35.04
73031;BME280;61206;50.816;6.012;2022-07-06T10:28:07;100729.44;;;23.05;34.53
73031;BME280;61206;50.816;6.012;2022-07-06T10:30:41;100742.34;;;23.49;34.37
73031;BME280;61206;50.816;6.012;2022-07-06T10:33:07;100737.84;;;23.74;33.79
73031;BME280;61206;50.816;6.012;2022-07-06T10:38:08;100742.28;;;23.79;33.46
73031;BME280;61206;50.816;6.012;2022-07-06T10:40:38;100739.38;;;23.63;32.23
73031;BME280;61206;50.816;6.012;2022-07-06T10:43:22;100734.09;;;23.46;32.22
73031;BME280;61206;50.816;6.012;2022-07-06T10:48:15;100736.22;;;23.61;33.67
73031;BME280;61206;50.816;6.012;2022-07-06T10:50:53;100738.81;;;23.28;32.46
73031;BME280;61206;50.816;6.012;2022-07-06T10:53:27;100742.03;;;23.30;33.09
73031;BME280;61206;50.816;6.012;2022-07-06T10:55:56;100739.41;;;23.13;33.26
73031;BME280;61206;50.816;6.012;2022-07-06T10:58:48;100729.19;;;23.19;33.38
73031;BME280;61206;50.816;6.012;2022-07-06T11:01:20;100736.13;;;23.28;34.37
73031;BME280;61206;50.816;6.012;2022-07-06T11:03:50;100734.06;;;23.25;33.69
73031;BME280;61206;50.816;6.012;2022-07-06T11:06:38;100740.28;;;23.26;34.26
73031;BME280;61206;50.816;6.012;2022-07-06T11:09:08;100737.78;;;23.21;34.63
73031;BME280;61206;50.816;6.012;2022-07-06T11:14:19;100741.91;;;23.47;34.69
73031;BME280;61206;50.816;6.012;2022-07-06T11:19:16;100737.06;;;23.32;33.24
73031;BME280;61206;50.816;6.012;2022-07-06T11:21:45;100739.19;;;23.47;34.06
73031;BME280;61206;50.816;6.012;2022-07-06T11:24:18;100732.66;;;23.48;34.43
73031;BME280;61206;50.816;6.012;2022-07-06T11:26:45;100745.78;;;23.58;33.33
73031;BME280;61206;50.816;6.012;2022-07-06T11:29:12;100731.38;;;23.67;33.56
73031;BME280;61206;50.816;6.012;2022-07-06T11:31:41;100734.09;;;23.67;32.48
73031;BME280;61206;50.816;6.012;2022-07-06T11:34:18;100732.59;;;23.57;32.87
73031;BME280;61206;50.816;6.012;2022-07-06T11:36:44;100721.75;;;23.57;33.13
73031;BME280;61206;50.816;6.012;2022-07-06T11:39:11;100735.81;;;23.50;33.33
73031;BME280;61206;50.816;6.012;2022-07-06T11:41:37;100724.31;;;23.53;33.95
73031;BME280;61206;50.816;6.012;2022-07-06T11:44:06;100738.25;;;23.64;34.31
73031;BME280;61206;50.816;6.012;2022-07-06T11:46:35;100724.47;;;23.57;33.56
73031;BME280;61206;50.816;6.012;2022-07-06T11:49:04;100731.25;;;23.63;33.54
73031;BME280;61206;50.816;6.012;2022-07-06T11:51:33;100727.16;;;23.57;34.27
73031;BME280;61206;50.816;6.012;2022-07-06T11:54:07;100724.09;;;23.58;33.22
73031;BME280;61206;50.816;6.012;2022-07-06T11:56:48;100726.81;;;23.58;33.00
73031;BME280;61206;50.816;6.012;2022-07-06T11:59:16;100725.47;;;23.64;33.62
73031;BME280;61206;50.816;6.012;2022-07-06T12:01:42;100715.13;;;23.46;34.20
73031;BME280;61206;50.816;6.012;2022-07-06T12:04:10;100736.47;;;23.47;34.08
73031;BME280;61206;50.816;6.012;2022-07-06T12:06:38;100722.66;;;23.40;33.52
73031;BME280;61206;50.816;6.012;2022-07-06T12:09:13;100719.44;;;23.47;33.38
73031;BME280;61206;50.816;6.012;2022-07-06T12:11:39;100718.63;;;23.46;34.12
73031;BME280;61206;50.816;6.012;2022-07-06T12:14:15;100719.84;;;23.57;34.08
73031;BME280;61206;50.816;6.012;2022-07-06T12:16:42;100717.31;;;23.32;34.19
73031;BME280;61206;50.816;6.012;2022-07-06T12:19:11;100711.28;;;23.26;34.44
73031;BME280;61206;50.816;6.012;2022-07-06T12:21:46;100706.22;;;23.45;35.39
73031;BME280;61206;50.816;6.012;2022-07-06T12:24:24;100709.44;;;23.59;34.13
73031;BME280;61206;50.816;6.012;2022-07-06T12:26:51;100693.88;;;23.69;33.47
73031;BME280;61206;50.816;6.012;2022-07-06T12:29:18;100695.25;;;23.75;33.58
73031;BME280;61206;50.816;6.012;2022-07-06T12:31:54;100697.06;;;23.71;33.60
73031;BME280;61206;50.816;6.012;2022-07-06T12:34:22;100700.00;;;23.78;34.64
73031;BME280;61206;50.816;6.012;2022-07-06T12:36:55;100678.00;;;23.79;34.37
73031;BME280;61206;50.816;6.012;2022-07-06T12:39:24;100686.06;;;24.00;33.72
73031;BME280;61206;50.816;6.012;2022-07-06T12:41:52;100685.66;;;24.10;34.02
73031;BME280;61206;50.816;6.012;2022-07-06T12:44:22;100688.16;;;24.15;33.58
73031;BME280;61206;50.816;6.012;2022-07-06T12:49:33;100678.31;;;24.10;32.52
73031;BME280;61206;50.816;6.012;2022-07-06T12:52:01;100674.81;;;24.10;33.18
73031;BME280;61206;50.816;6.012;2022-07-06T12:54:42;100668.63;;;24.22;32.83
73031;BME280;61206;50.816;6.012;2022-07-06T12:57:19;100669.53;;;24.13;32.66
73031;BME280;61206;50.816;6.012;2022-07-06T12:59:56;100667.16;;;24.24;33.16
73031;BME280;61206;50.816;6.012;2022-07-06T13:02:29;100673.38;;;24.25;33.60
73031;BME280;61206;50.816;6.012;2022-07-06T13:05:05;100681.19;;;24.26;33.12
73031;BME280;61206;50.816;6.012;2022-07-06T13:07:33;100674.97;;;24.38;32.10
73031;BME280;61206;50.816;6.012;2022-07-06T13:10:08;100669.97;;;24.28;32.19
73031;BME280;61206;50.816;6.012;2022-07-06T13:12:36;100655.41;;;24.20;32.03
73031;BME280;61206;50.816;6.012;2022-07-06T13:15:02;100673.25;;;24.21;32.25
73031;BME280;61206;50.816;6.012;2022-07-06T13:17:29;100668.50;;;24.18;33.46
73031;BME280;61206;50.816;6.012;2022-07-06T13:19:55;100673.47;;;24.16;32.35
73031;BME280;61206;50.816;6.012;2022-07-06T13:22:20;100662.75;;;24.20;33.40
73031;BME280;61206;50.816;6.012;2022-07-06T13:24:47;100651.19;;;24.10;33.97
73031;BME280;61206;50.816;6.012;2022-07-06T13:27:12;100669.19;;;24.39;34.35
73031;BME280;61206;50.816;6.012;2022-07-06T13:29:38;100666.94;;;24.41;33.67
73031;BME280;61206;50.816;6.012;2022-07-06T13:32:07;100664.53;;;24.52;32.79
73031;BME280;61206;50.816;6.012;2022-07-06T13:34:35;100656.28;;;24.48;32.15
73031;BME280;61206;50.816;6.012;2022-07-06T13:37:01;100655.28;;;24.29;33.05
73031;BME280;61206;50.816;6.012;2022-07-06T13:39:26;100652.91;;;24.15;33.72
73031;BME280;61206;50.816;6.012;2022-07-06T13:41:56;100653.13;;;24.22;33.01
73031;BME280;61206;50.816;6.012;2022-07-06T13:44:24;100649.63;;;24.22;34.16
73031;BME280;61206;50.816;6.012;2022-07-06T13:46:50;100632.78;;;24.16;34.14
73031;BME280;61206;50.816;6.012;2022-07-06T13:49:17;100637.09;;;24.29;33.59
73031;BME280;61206;50.816;6.012;2022-07-06T13:51:45;100649.06;;;24.28;33.29